sensor_id;sensor_type;location;lat;lon;timestamp;P1;P2;P0
49570;PMS7003;36970;39.352;20.286;2022-09-25T00:02:26;6.00;6.00;4.33
49570;PMS7003;36970;39.352;20.286;2022-09-25T00:32:28;4.00;4.00;2.33
49570;PMS7003;36970;39.352;20.286;2022-09-25T01:02:32;5.67;5.67;5.00
49570;PMS7003;36970;39.352;20.286;2022-09-25T01:32:39;6.67;5.33;4.33
49570;PMS7003;36970;39.352;20.286;2022-09-25T02:02:52;5.33;5.33;4.00
49570;PMS7003;36970;39.352;20.286;2022-09-25T02:32:57;8.33;6.67;5.67
49570;PMS7003;36970;39.352;20.286;2022-09-25T03:03:00;7.00;7.00;5.67
49570;PMS7003;36970;39.352;20.286;2022-09-25T03:33:05;8.00;7.33;6.00
49570;PMS7003;36970;39.352;20.286;2022-09-25T04:03:07;7.33;6.33;4.33
49570;PMS7003;36970;39.352;20.286;2022-09-25T04:33:10;5.33;4.00;3.67
49570;PMS7003;36970;39.352;20.286;2022-09-25T05:03:12;7.00;7.00;5.00
49570;PMS7003;36970;39.352;20.286;2022-09-25T05:33:15;6.33;5.33;3.67
49570;PMS7003;36970;39.352;20.286;2022-09-25T06:03:17;5.67;4.67;3.67
49570;PMS7003;36970;39.352;20.286;2022-09-25T06:33:19;4.33;4.33;4.33
49570;PMS7003;36970;39.352;20.286;2022-09-25T07:03:22;5.33;4.33;3.33
49570;PMS7003;36970;39.352;20.286;2022-09-25T07:33:25;4.67;4.67;2.33
49570;PMS7003;36970;39.352;20.286;2022-09-25T08:03:27;5.33;5.33;4.67
49570;PMS7003;36970;39.352;20.286;2022-09-25T08:33:29;4.00;4.00;3.00
49570;PMS7003;36970;39.352;20.286;2022-09-25T09:03:32;6.00;6.00;5.33
49570;PMS7003;36970;39.352;20.286;2022-09-25T09:33:46;3.33;2.67;2.00
49570;PMS7003;36970;39.352;20.286;2022-09-25T10:04:02;4.67;4.67;3.67
49570;PMS7003;36970;39.352;20.286;2022-09-25T10:34:15;4.67;4.67;3.67
49570;PMS7003;36970;39.352;20.286;2022-09-25T11:04:22;4.00;4.00;4.00
49570;PMS7003;36970;39.352;20.286;2022-09-25T11:34:30;4.00;4.00;3.00
49570;PMS7003;36970;39.352;20.286;2022-09-25T12:04:52;4.00;4.00;2.00
49570;PMS7003;36970;39.352;20.286;2022-09-25T12:35:14;2.67;2.67;2.00
49570;PMS7003;36970;39.352;20.286;2022-09-25T13:05:28;3.67;2.67;1.67
49570;PMS7003;36970;39.352;20.286;2022-09-25T13:35:34;3.00;2.33;2.00
49570;PMS7003;36970;39.352;20.286;2022-09-25T14:05:39;0.00;0.00;0.00
49570;PMS7003;36970;39.352;20.286;2022-09-25T14:35:45;3.33;2.67;2.00
49570;PMS7003;36970;39.352;20.286;2022-09-25T15:06:00;6.00;4.67;3.00
49570;PMS7003;36970;39.352;20.286;2022-09-25T15:36:09;4.00;4.00;3.00
49570;PMS7003;36970;39.352;20.286;2022-09-25T16:06:16;4.00;2.33;2.00
49570;PMS7003;36970;39.352;20.286;2022-09-25T16:36:19;5.67;5.67;4.00
49570;PMS7003;36970;39.352;20.286;2022-09-25T17:06:22;5.00;4.00;3.67
49570;PMS7003;36970;39.352;20.286;2022-09-25T17:36:25;5.00;5.00;2.33
49570;PMS7003;36970;39.352;20.286;2022-09-25T18:06:28;4.00;4.00;3.00
49570;PMS7003;36970;39.352;20.286;2022-09-25T18:36:31;1.67;1.67;1.00
49570;PMS7003;36970;39.352;20.286;2022-09-25T19:06:34;1.00;0.00;0.00
49570;PMS7003;36970;39.352;20.286;2022-09-25T19:36:36;1.67;1.00;1.00
49570;PMS7003;36970;39.352;20.286;2022-09-25T20:06:39;4.00;3.33;3.00
49570;PMS7003;36970;39.352;20.286;2022-09-25T20:36:41;2.33;1.33;1.00
49570;PMS7003;36970;39.352;20.286;2022-09-25T21:06:44;1.00;1.00;0.67
49570;PMS7003;36970;39.352;20.286;2022-09-25T21:36:47;1.00;1.00;1.00
49570;PMS7003;36970;39.352;20.286;2022-09-25T22:06:50;1.00;1.00;1.00
49570;PMS7003;36970;39.352;20.286;2022-09-25T22:36:53;0.33;0.33;0.33
49570;PMS7003;36970;39.352;20.286;2022-09-25T23:06:56;2.00;2.00;1.33
49570;PMS7003;36970;39.352;20.286;2022-09-25T23:36:58;2.67;2.67;2.67
